CheckWX is a tool to help pilots better visualize weather data.  It is not intended as a substitute for an official pre-flight weather briefing.

18:06:46 UTC

VTSB METAR
Surat Thani Airport
Surat Thani, Thailand
Current

3 hours ago

VTSB 211500Z 34002KT 9000 FEW020 24/24 Q1013
Observed
Nov-21 @ 15:00 UTC
Wind
  • 340° at 2 KTS
Visibility
9,000 meters
Flight Rules
VFR
Cloud Levels
  • Few at 2,000' AGL
Temperature
24°C / 75°F
Dewpoint
24°C / 75°F
Humidity
100%
Altimeter
29.91" Hg
Pressure
1012.92 hPa
Previous

4 hours ago

VTSB 211400Z 00000KT 9000 FEW020 24/24 Q1013
Observed
Nov-21 @ 14:00 UTC
Visibility
9,000 meters
Flight Rules
VFR
Cloud Levels
  • Few at 2,000' AGL
Temperature
24°C / 75°F
Dewpoint
24°C / 75°F
Humidity
100%
Altimeter
29.91" Hg
Pressure
1012.92 hPa
Previous

5 hours ago

VTSB 211300Z 00000KT 9000 SCT020 SCT100 25/25 Q1012
Observed
Nov-21 @ 13:00 UTC
Visibility
9,000 meters
Flight Rules
VFR
Cloud Levels
  • Scattered at 2,000' AGL
  • Scattered at 10,000' AGL
Temperature
25°C / 77°F
Dewpoint
25°C / 77°F
Humidity
100%
Altimeter
29.88" Hg
Pressure
1011.92 hPa